To NAV CANADA Home Page Login to a new session Search on AWWS site Feedback and Comments Disclaimer Vers la page française équivalente Tips FAQ What's new on the site To the Forecasts and Observations / NOTAM section To "File a Flight Plan" website Publications and other links Update of the User's profile FIC Telephone Numbers My Weather Data Folder Route Weather Data Regional Weather Data Local Weather Data To the Forecasts and Observations / NOTAM section
Request Generated 04/18/2015 at 16:40:05 UTC . Weather information available at that time is displayed.

METAR/TAF

FORT CHIPEWYAN/AB    (show WxCam)

METAR CYPY 181600Z AUTO 33006KT 250V360 9SM SCT100 SCT120 07/M02
A3007 RMK SLP194=
METAR CYPY 181500Z AUTO 32011KT 9SM BKN090 05/M01 A3004 RMK SLP185=
METAR CYPY 181400Z AUTO 28006KT 9SM SCT085 04/01 A3003 RMK SLP181=

TAF CYPY 181238Z 1813/1822 VRB03KT P6SM OVC060
FM181700 07008KT P6SM SCT060
RMK FCST BASED ON AUTO OBS. NXT FCST BY 181800Z=
Your time UTC time
Weather data provided by Environment Canada and NAV CANADA